Amy C. Mc Allister — WCZ9520 — position and weather

sailwx.info

Track history (hours):
 
Tides and Currents Weather Stations Pressure Air Temp Water Temp Dewpoint Dewpoint Depression Visibility Wind Speed Wind Dir Waves Ship Positions

Amy C. Mc Allister

Owner: MC ALLISTER TOWING & TRANSPORTATION INC, NEW YORK, NY. More information available from US FCC via Universal Licensing System and Coast Guard Vessel Documentation Center.

Last reported at 2017-Feb-22 14:33 UTC. Time now 2017-Feb-22 15:16 UTC.
Position N 39°51' W 075°14'.

; draft 4.9 m.

Type: Towing. MMSI: 366995040.

Date/timePositionNaut miles runAvg speedWind from/ knotsBaromVisibWave heightAir tempDewpointWater temp
2017-Feb-22 14:33N 39°51' W 075°14'0 0.0
2017-Feb-22 13:33N 39°51' W 075°14'1 0.8
2017-Feb-22 12:33N 39°52' W 075°13'2 2.2
2017-Feb-22 11:33N 39°54' W 075°12'0 0.0
2017-Feb-22 10:33N 39°54' W 075°12'0 0.0
2017-Feb-22 09:33N 39°54' W 075°12'0 0.0
2017-Feb-22 08:33N 39°54' W 075°12'0 0.0
2017-Feb-22 07:33N 39°54' W 075°12'0 0.1
2017-Feb-22 06:33N 39°54' W 075°12'0 0.1
2017-Feb-22 05:33N 39°54' W 075°12'0 0.0
2017-Feb-22 04:33N 39°54' W 075°12'0 0.0
2017-Feb-22 03:34N 39°54' W 075°12'0 0.0
2017-Feb-22 02:33N 39°54' W 075°12'0 0.0
2017-Feb-22 01:33N 39°54' W 075°12'0 0.0
2017-Feb-22 00:33N 39°54' W 075°12'0 0.0
2017-Feb-21 23:33N 39°54' W 075°12'0 0.0
2017-Feb-21 22:33N 39°54' W 075°12'0 0.1
2017-Feb-21 21:33N 39°54' W 075°12'0 0.1
2017-Feb-21 20:34N 39°54' W 075°12'4 4.0
2017-Feb-21 19:33N 39°57' W 075°08'5 5.3
2017-Feb-21 18:34N 39°52' W 075°12'2 1.8
2017-Feb-21 17:33N 39°51' W 075°14'0 0.0
2017-Feb-21 16:33N 39°51' W 075°14'0 0.0
2017-Feb-21 15:33N 39°51' W 075°14'0 0.0
2017-Feb-21 14:33N 39°51' W 075°14'0 0.0
2017-Feb-21 13:33N 39°51' W 075°14'0 0.0
2017-Feb-21 12:33N 39°51' W 075°14'1 0.9
2017-Feb-21 11:34N 39°52' W 075°13'5 4.5
2017-Feb-21 10:33N 39°54' W 075°08'0 0.4
2017-Feb-21 09:33N 39°54' W 075°08'0 0.0
2017-Feb-21 08:33N 39°54' W 075°08'0 0.1
2017-Feb-21 07:34N 39°54' W 075°08'0 0.0
2017-Feb-21 06:33N 39°54' W 075°08'0 0.0
2017-Feb-21 05:33N 39°54' W 075°08'0 0.0
2017-Feb-21 04:33N 39°54' W 075°08'0 0.0
2017-Feb-21 03:33N 39°54' W 075°08'0 0.0
2017-Feb-21 02:34N 39°54' W 075°08'0 0.0
2017-Feb-21 01:33N 39°54' W 075°08'0 0.0
2017-Feb-21 00:32N 39°54' W 075°08'0 0.0
2017-Feb-20 23:30N 39°54' W 075°08'0 0.0
2017-Feb-20 22:30N 39°54' W 075°08'0 0.0
2017-Feb-20 21:33N 39°54' W 075°08'0 0.1
2017-Feb-20 20:34N 39°54' W 075°08'0 0.0
2017-Feb-20 19:33N 39°54' W 075°08'0 0.0
2017-Feb-20 18:33N 39°54' W 075°08'0 0.0
2017-Feb-20 17:33N 39°54' W 075°08'3 2.7
2017-Feb-20 16:33N 39°53' W 075°11'1 1.1
2017-Feb-20 15:33N 39°54' W 075°12'0 0.0
2017-Feb-20 14:33N 39°54' W 075°12'0 0.0
2017-Feb-20 13:32N 39°54' W 075°12'0 0.0
2017-Feb-20 12:33N 39°54' W 075°12'0 0.0
2017-Feb-20 11:33N 39°54' W 075°12'0 0.0
2017-Feb-20 10:33N 39°54' W 075°12'0 0.0
2017-Feb-20 09:33N 39°54' W 075°12'0 0.0
2017-Feb-20 08:33N 39°54' W 075°12'0 0.0
2017-Feb-20 07:33N 39°54' W 075°12'0 0.0
2017-Feb-20 06:34N 39°54' W 075°12'0 0.0
2017-Feb-20 05:26N 39°54' W 075°12'0 0.0
2017-Feb-20 04:33N 39°54' W 075°12'0 0.0
2017-Feb-20 03:33N 39°54' W 075°12'0 0.0
2017-Feb-20 02:33N 39°54' W 075°12'0 0.1
2017-Feb-20 01:33N 39°54' W 075°12'0 0.0
2017-Feb-20 00:33N 39°54' W 075°12'0 0.0
2017-Feb-19 23:33N 39°54' W 075°12'0 0.0
2017-Feb-19 22:33N 39°54' W 075°12'0 0.0
2017-Feb-19 21:33N 39°54' W 075°12'0 0.0
2017-Feb-19 20:33N 39°54' W 075°12'0 0.0
2017-Feb-19 19:34N 39°54' W 075°12'0 0.0
2017-Feb-19 18:33N 39°54' W 075°12'2 2.5
2017-Feb-19 17:33N 39°52' W 075°14'5 5.2
2017-Feb-19 16:33N 39°54' W 075°08'0 0.0
2017-Feb-19 15:33N 39°54' W 075°08'0 0.0
2017-Feb-19 14:33N 39°54' W 075°08'0 0.0
2017-Feb-19 13:33N 39°54' W 075°08'0 0.0
2017-Feb-19 12:33N 39°54' W 075°08'0 0.0
2017-Feb-19 11:34N 39°54' W 075°08'0 0.0
2017-Feb-19 10:33N 39°54' W 075°08'0 0.0
2017-Feb-19 09:34N 39°54' W 075°08'0 0.0
2017-Feb-19 08:33N 39°54' W 075°08'0 0.0
2017-Feb-19 07:33N 39°54' W 075°08'0 0.0
2017-Feb-19 06:33N 39°54' W 075°08'0 0.0
2017-Feb-19 05:33N 39°54' W 075°08'0 0.0
2017-Feb-19 04:33N 39°54' W 075°08'0 0.0
2017-Feb-19 03:33N 39°54' W 075°08'0 0.0
2017-Feb-19 02:33N 39°54' W 075°08'0 0.0
2017-Feb-19 01:33N 39°54' W 075°08'0 0.0
2017-Feb-19 00:33N 39°54' W 075°08'0 0.0
2017-Feb-18 23:33N 39°54' W 075°08'6 6.3
2017-Feb-18 22:34N 39°51' W 075°15'8 7.7
2017-Feb-18 21:33N 39°48' W 075°24'1110.6
2017-Feb-18 20:34N 39°40' W 075°32'10 9.9
2017-Feb-18 19:33N 39°30' W 075°33'1010.5
2017-Feb-18 18:34N 39°21' W 075°26'1110.7
2017-Feb-18 17:34N 39°13' W 075°17'1110.7
2017-Feb-18 16:33N 39°04' W 075°10'1110.8
2017-Feb-18 15:34N 38°54' W 075°05'30 7.3
2017-Feb-18 11:31N 39°07' W 074°31'31 9.5
2017-Feb-18 08:16N 39°32' W 074°07'7 9.6
2017-Feb-18 07:31N 39°38' W 074°02'42 9.5
2017-Feb-18 03:08N 40°19' W 073°55'6 9.8
2017-Feb-18 02:33N 40°25' W 073°55'8 7.8
2017-Feb-18 01:33N 40°31' W 074°00'7 7.1
2017-Feb-18 00:34N 40°38' W 074°03'5 4.7
2017-Feb-17 23:34N 40°41' W 074°09'1 0.9
2017-Feb-17 22:34N 40°41' W 074°09'0 0.1
2017-Feb-17 21:33N 40°41' W 074°09'0 0.0
2017-Feb-17 20:33N 40°41' W 074°09'0 0.0
2017-Feb-17 19:33N 40°41' W 074°09'0 0.0
2017-Feb-17 18:33N 40°41' W 074°09'0 0.0
2017-Feb-17 17:33N 40°41' W 074°09'0 0.0
2017-Feb-17 16:33N 40°41' W 074°09'0 0.0
2017-Feb-17 15:33N 40°41' W 074°09'3 2.8
2017-Feb-17 14:33N 40°38' W 074°10'0 0.0
2017-Feb-17 13:33N 40°38' W 074°10'0 0.0
2017-Feb-17 12:33N 40°38' W 074°10'0 0.0
2017-Feb-17 11:33N 40°38' W 074°10'0 0.0
2017-Feb-17 10:33N 40°38' W 074°10'0 0.0
2017-Feb-17 09:33N 40°38' W 074°10'0 0.0
2017-Feb-17 08:33N 40°38' W 074°10'0 0.0
2017-Feb-17 07:33N 40°38' W 074°10'0 0.0
2017-Feb-17 06:33N 40°38' W 074°10'0 0.0
2017-Feb-17 05:33N 40°38' W 074°10'0 0.0
2017-Feb-17 04:33N 40°38' W 074°10'0 0.0
2017-Feb-17 03:33N 40°38' W 074°10'0 0.0
2017-Feb-17 02:33N 40°38' W 074°10'0 0.0
2017-Feb-17 01:33N 40°38' W 074°10'0 0.0
2017-Feb-17 00:33N 40°38' W 074°10'0 0.0
2017-Feb-16 23:33N 40°38' W 074°10'0 0.0
2017-Feb-16 22:33N 40°38' W 074°10'0 0.0
2017-Feb-16 21:33N 40°38' W 074°10'0 0.0
2017-Feb-16 20:33N 40°38' W 074°10'0 0.0
2017-Feb-16 19:33N 40°38' W 074°10'0 0.0
2017-Feb-16 18:33N 40°38' W 074°10'0 0.0
2017-Feb-16 17:33N 40°38' W 074°10'0 0.0
2017-Feb-16 16:33N 40°38' W 074°10'0 0.0
2017-Feb-16 15:33N 40°38' W 074°10'0 0.0
2017-Feb-16 14:33N 40°38' W 074°10'0 0.0
2017-Feb-16 13:34N 40°38' W 074°10'0 0.0
2017-Feb-16 12:33N 40°38' W 074°10'0 0.0
2017-Feb-16 11:33N 40°38' W 074°10'0 0.0
2017-Feb-16 10:33N 40°38' W 074°10'0 0.0
2017-Feb-16 09:33N 40°38' W 074°10'0 0.0
2017-Feb-16 08:32N 40°38' W 074°10'0 0.0
2017-Feb-16 07:33N 40°38' W 074°10'0 0.0
2017-Feb-16 06:33N 40°38' W 074°10'0 0.0
2017-Feb-16 05:33N 40°38' W 074°10'0 0.0
2017-Feb-16 04:33N 40°38' W 074°10'0 0.0
2017-Feb-16 03:33N 40°38' W 074°10'0 0.0
2017-Feb-16 02:33N 40°38' W 074°10'0 0.0
2017-Feb-16 01:33N 40°38' W 074°10'0 0.0
2017-Feb-16 00:33N 40°38' W 074°10'0 0.0
2017-Feb-15 23:33N 40°38' W 074°10'0 0.0
2017-Feb-15 22:33N 40°38' W 074°10'0 0.0
2017-Feb-15 21:33N 40°38' W 074°10'0 0.0
2017-Feb-15 20:33N 40°38' W 074°10'0 0.0
2017-Feb-15 19:33N 40°38' W 074°10'0 0.0
2017-Feb-15 18:32N 40°38' W 074°10'0 0.0
2017-Feb-15 17:33N 40°38' W 074°10'0 0.0
2017-Feb-15 16:33N 40°38' W 074°10'0 0.0
2017-Feb-15 15:33N 40°38' W 074°10'0 0.0
2017-Feb-15 14:33N 40°38' W 074°10'0 0.0
2017-Feb-15 13:33N 40°38' W 074°10'0 0.0
2017-Feb-15 12:33N 40°38' W 074°10'0 0.0
2017-Feb-15 11:33N 40°38' W 074°10'0 0.0
2017-Feb-15 10:33N 40°38' W 074°10'0 0.0
2017-Feb-15 09:33N 40°38' W 074°10'0 0.0
2017-Feb-15 08:33N 40°38' W 074°10'0 0.0
2017-Feb-15 07:33N 40°38' W 074°10'0 0.0
2017-Feb-15 06:33N 40°38' W 074°10'0 0.0
2017-Feb-15 05:33N 40°38' W 074°10'0 0.0
2017-Feb-15 04:33N 40°38' W 074°10'0 0.0
2017-Feb-15 03:32N 40°38' W 074°10'0 0.0
2017-Feb-15 02:33N 40°38' W 074°10'0 0.0
2017-Feb-15 01:33N 40°38' W 074°10'0 0.0
2017-Feb-15 00:33N 40°38' W 074°10'0 0.0
2017-Feb-14 23:33N 40°38' W 074°10'0 0.0
2017-Feb-14 22:33N 40°38' W 074°10'0 0.0
2017-Feb-14 21:33N 40°38' W 074°10'0 0.0
2017-Feb-14 20:33N 40°38' W 074°10'0 0.0
2017-Feb-14 19:33N 40°38' W 074°10'0 0.0
2017-Feb-14 18:33N 40°38' W 074°10'0 0.0
2017-Feb-14 17:33N 40°38' W 074°10'0 0.0
2017-Feb-14 16:33N 40°38' W 074°10'0 0.0
2017-Feb-14 15:33N 40°38' W 074°10'0 0.0
2017-Feb-14 14:33N 40°38' W 074°10'0 0.0
2017-Feb-14 13:33N 40°38' W 074°10'0 0.0
2017-Feb-14 12:33N 40°38' W 074°10'0 0.0
2017-Feb-14 11:33N 40°38' W 074°10'0 0.0
2017-Feb-14 10:33N 40°38' W 074°10'0 0.0
2017-Feb-14 09:33N 40°38' W 074°10'0 0.0
2017-Feb-14 08:33N 40°38' W 074°10'0 0.0
2017-Feb-14 07:33N 40°38' W 074°10'0 0.0
2017-Feb-14 06:33N 40°38' W 074°10'0 0.0
2017-Feb-14 05:33N 40°38' W 074°10'0 0.0
2017-Feb-14 04:33N 40°38' W 074°10'0 0.0
2017-Feb-14 03:33N 40°38' W 074°10'0 0.0
2017-Feb-14 02:33N 40°38' W 074°10'0 0.0
2017-Feb-14 01:32N 40°38' W 074°10'0 0.0
2017-Feb-14 00:33N 40°38' W 074°10'0 0.0
2017-Feb-13 23:33N 40°38' W 074°10'2 2.4
2017-Feb-13 22:33N 40°41' W 074°08'0 0.4
2017-Feb-13 21:33N 40°40' W 074°08'2 2.5
2017-Feb-13 20:33N 40°39' W 074°05'3 3.4
2017-Feb-13 19:33N 40°38' W 074°10'  
Track history (hours):
 
Tides and Currents Weather Stations Pressure Air Temp Water Temp Dewpoint Dewpoint Depression Visibility Wind Speed Wind Dir Waves Ship Positions

Amy C. Mc Allister

Owner: MC ALLISTER TOWING & TRANSPORTATION INC, NEW YORK, NY. More information available from US FCC via Universal Licensing System and Coast Guard Vessel Documentation Center.

Last reported at 2017-Feb-22 14:33 UTC. Time now 2017-Feb-22 15:16 UTC.
Position N 39°51' W 075°14'.

; draft 4.9 m.

Type: Towing. MMSI: 366995040.

Date/timePositionNaut miles runAvg speedWind from/ knotsBaromVisibWave heightAir tempDewpointWater temp
2017-Feb-22 14:33N 39°51' W 075°14'0 0.0
2017-Feb-22 13:33N 39°51' W 075°14'1 0.8
2017-Feb-22 12:33N 39°52' W 075°13'2 2.2
2017-Feb-22 11:33N 39°54' W 075°12'0 0.0
2017-Feb-22 10:33N 39°54' W 075°12'0 0.0
2017-Feb-22 09:33N 39°54' W 075°12'0 0.0
2017-Feb-22 08:33N 39°54' W 075°12'0 0.0
2017-Feb-22 07:33N 39°54' W 075°12'0 0.1
2017-Feb-22 06:33N 39°54' W 075°12'0 0.1
2017-Feb-22 05:33N 39°54' W 075°12'0 0.0
2017-Feb-22 04:33N 39°54' W 075°12'0 0.0
2017-Feb-22 03:34N 39°54' W 075°12'0 0.0
2017-Feb-22 02:33N 39°54' W 075°12'0 0.0
2017-Feb-22 01:33N 39°54' W 075°12'0 0.0
2017-Feb-22 00:33N 39°54' W 075°12'0 0.0
2017-Feb-21 23:33N 39°54' W 075°12'0 0.0
2017-Feb-21 22:33N 39°54' W 075°12'0 0.1
2017-Feb-21 21:33N 39°54' W 075°12'0 0.1
2017-Feb-21 20:34N 39°54' W 075°12'4 4.0
2017-Feb-21 19:33N 39°57' W 075°08'5 5.3
2017-Feb-21 18:34N 39°52' W 075°12'2 1.8
2017-Feb-21 17:33N 39°51' W 075°14'0 0.0
2017-Feb-21 16:33N 39°51' W 075°14'0 0.0
2017-Feb-21 15:33N 39°51' W 075°14'0 0.0
2017-Feb-21 14:33N 39°51' W 075°14'0 0.0
2017-Feb-21 13:33N 39°51' W 075°14'0 0.0
2017-Feb-21 12:33N 39°51' W 075°14'1 0.9
2017-Feb-21 11:34N 39°52' W 075°13'5 4.5
2017-Feb-21 10:33N 39°54' W 075°08'0 0.4
2017-Feb-21 09:33N 39°54' W 075°08'0 0.0
2017-Feb-21 08:33N 39°54' W 075°08'0 0.1
2017-Feb-21 07:34N 39°54' W 075°08'0 0.0
2017-Feb-21 06:33N 39°54' W 075°08'0 0.0
2017-Feb-21 05:33N 39°54' W 075°08'0 0.0
2017-Feb-21 04:33N 39°54' W 075°08'0 0.0
2017-Feb-21 03:33N 39°54' W 075°08'0 0.0
2017-Feb-21 02:34N 39°54' W 075°08'0 0.0
2017-Feb-21 01:33N 39°54' W 075°08'0 0.0
2017-Feb-21 00:32N 39°54' W 075°08'0 0.0
2017-Feb-20 23:30N 39°54' W 075°08'0 0.0
2017-Feb-20 22:30N 39°54' W 075°08'0 0.0
2017-Feb-20 21:33N 39°54' W 075°08'0 0.1
2017-Feb-20 20:34N 39°54' W 075°08'0 0.0
2017-Feb-20 19:33N 39°54' W 075°08'0 0.0
2017-Feb-20 18:33N 39°54' W 075°08'0 0.0
2017-Feb-20 17:33N 39°54' W 075°08'3 2.7
2017-Feb-20 16:33N 39°53' W 075°11'1 1.1
2017-Feb-20 15:33N 39°54' W 075°12'0 0.0
2017-Feb-20 14:33N 39°54' W 075°12'0 0.0
2017-Feb-20 13:32N 39°54' W 075°12'0 0.0
2017-Feb-20 12:33N 39°54' W 075°12'0 0.0
2017-Feb-20 11:33N 39°54' W 075°12'0 0.0
2017-Feb-20 10:33N 39°54' W 075°12'0 0.0
2017-Feb-20 09:33N 39°54' W 075°12'0 0.0
2017-Feb-20 08:33N 39°54' W 075°12'0 0.0
2017-Feb-20 07:33N 39°54' W 075°12'0 0.0
2017-Feb-20 06:34N 39°54' W 075°12'0 0.0
2017-Feb-20 05:26N 39°54' W 075°12'0 0.0
2017-Feb-20 04:33N 39°54' W 075°12'0 0.0
2017-Feb-20 03:33N 39°54' W 075°12'0 0.0
2017-Feb-20 02:33N 39°54' W 075°12'0 0.1
2017-Feb-20 01:33N 39°54' W 075°12'0 0.0
2017-Feb-20 00:33N 39°54' W 075°12'0 0.0
2017-Feb-19 23:33N 39°54' W 075°12'0 0.0
2017-Feb-19 22:33N 39°54' W 075°12'0 0.0
2017-Feb-19 21:33N 39°54' W 075°12'0 0.0
2017-Feb-19 20:33N 39°54' W 075°12'0 0.0
2017-Feb-19 19:34N 39°54' W 075°12'0 0.0
2017-Feb-19 18:33N 39°54' W 075°12'2 2.5
2017-Feb-19 17:33N 39°52' W 075°14'5 5.2
2017-Feb-19 16:33N 39°54' W 075°08'0 0.0
2017-Feb-19 15:33N 39°54' W 075°08'0 0.0
2017-Feb-19 14:33N 39°54' W 075°08'0 0.0
2017-Feb-19 13:33N 39°54' W 075°08'0 0.0
2017-Feb-19 12:33N 39°54' W 075°08'0 0.0
2017-Feb-19 11:34N 39°54' W 075°08'0 0.0
2017-Feb-19 10:33N 39°54' W 075°08'0 0.0
2017-Feb-19 09:34N 39°54' W 075°08'0 0.0
2017-Feb-19 08:33N 39°54' W 075°08'0 0.0
2017-Feb-19 07:33N 39°54' W 075°08'0 0.0
2017-Feb-19 06:33N 39°54' W 075°08'0 0.0
2017-Feb-19 05:33N 39°54' W 075°08'0 0.0
2017-Feb-19 04:33N 39°54' W 075°08'0 0.0
2017-Feb-19 03:33N 39°54' W 075°08'0 0.0
2017-Feb-19 02:33N 39°54' W 075°08'0 0.0
2017-Feb-19 01:33N 39°54' W 075°08'0 0.0
2017-Feb-19 00:33N 39°54' W 075°08'0 0.0
2017-Feb-18 23:33N 39°54' W 075°08'6 6.3
2017-Feb-18 22:34N 39°51' W 075°15'8 7.7
2017-Feb-18 21:33N 39°48' W 075°24'1110.6
2017-Feb-18 20:34N 39°40' W 075°32'10 9.9
2017-Feb-18 19:33N 39°30' W 075°33'1010.5
2017-Feb-18 18:34N 39°21' W 075°26'1110.7
2017-Feb-18 17:34N 39°13' W 075°17'1110.7
2017-Feb-18 16:33N 39°04' W 075°10'1110.8
2017-Feb-18 15:34N 38°54' W 075°05'30 7.3
2017-Feb-18 11:31N 39°07' W 074°31'31 9.5
2017-Feb-18 08:16N 39°32' W 074°07'7 9.6
2017-Feb-18 07:31N 39°38' W 074°02'42 9.5
2017-Feb-18 03:08N 40°19' W 073°55'6 9.8
2017-Feb-18 02:33N 40°25' W 073°55'8 7.8
2017-Feb-18 01:33N 40°31' W 074°00'7 7.1
2017-Feb-18 00:34N 40°38' W 074°03'5 4.7
2017-Feb-17 23:34N 40°41' W 074°09'1 0.9
2017-Feb-17 22:34N 40°41' W 074°09'0 0.1
2017-Feb-17 21:33N 40°41' W 074°09'0 0.0
2017-Feb-17 20:33N 40°41' W 074°09'0 0.0
2017-Feb-17 19:33N 40°41' W 074°09'0 0.0
2017-Feb-17 18:33N 40°41' W 074°09'0 0.0
2017-Feb-17 17:33N 40°41' W 074°09'0 0.0
2017-Feb-17 16:33N 40°41' W 074°09'0 0.0
2017-Feb-17 15:33N 40°41' W 074°09'3 2.8
2017-Feb-17 14:33N 40°38' W 074°10'0 0.0
2017-Feb-17 13:33N 40°38' W 074°10'0 0.0
2017-Feb-17 12:33N 40°38' W 074°10'0 0.0
2017-Feb-17 11:33N 40°38' W 074°10'0 0.0
2017-Feb-17 10:33N 40°38' W 074°10'0 0.0
2017-Feb-17 09:33N 40°38' W 074°10'0 0.0
2017-Feb-17 08:33N 40°38' W 074°10'0 0.0
2017-Feb-17 07:33N 40°38' W 074°10'0 0.0
2017-Feb-17 06:33N 40°38' W 074°10'0 0.0
2017-Feb-17 05:33N 40°38' W 074°10'0 0.0
2017-Feb-17 04:33N 40°38' W 074°10'0 0.0
2017-Feb-17 03:33N 40°38' W 074°10'0 0.0
2017-Feb-17 02:33N 40°38' W 074°10'0 0.0
2017-Feb-17 01:33N 40°38' W 074°10'0 0.0
2017-Feb-17 00:33N 40°38' W 074°10'0 0.0
2017-Feb-16 23:33N 40°38' W 074°10'0 0.0
2017-Feb-16 22:33N 40°38' W 074°10'0 0.0
2017-Feb-16 21:33N 40°38' W 074°10'0 0.0
2017-Feb-16 20:33N 40°38' W 074°10'0 0.0
2017-Feb-16 19:33N 40°38' W 074°10'0 0.0
2017-Feb-16 18:33N 40°38' W 074°10'0 0.0
2017-Feb-16 17:33N 40°38' W 074°10'0 0.0
2017-Feb-16 16:33N 40°38' W 074°10'0 0.0
2017-Feb-16 15:33N 40°38' W 074°10'0 0.0
2017-Feb-16 14:33N 40°38' W 074°10'0 0.0
2017-Feb-16 13:34N 40°38' W 074°10'0 0.0
2017-Feb-16 12:33N 40°38' W 074°10'0 0.0
2017-Feb-16 11:33N 40°38' W 074°10'0 0.0
2017-Feb-16 10:33N 40°38' W 074°10'0 0.0
2017-Feb-16 09:33N 40°38' W 074°10'0 0.0
2017-Feb-16 08:32N 40°38' W 074°10'0 0.0
2017-Feb-16 07:33N 40°38' W 074°10'0 0.0
2017-Feb-16 06:33N 40°38' W 074°10'0 0.0
2017-Feb-16 05:33N 40°38' W 074°10'0 0.0
2017-Feb-16 04:33N 40°38' W 074°10'0 0.0
2017-Feb-16 03:33N 40°38' W 074°10'0 0.0
2017-Feb-16 02:33N 40°38' W 074°10'0 0.0
2017-Feb-16 01:33N 40°38' W 074°10'0 0.0
2017-Feb-16 00:33N 40°38' W 074°10'0 0.0
2017-Feb-15 23:33N 40°38' W 074°10'0 0.0
2017-Feb-15 22:33N 40°38' W 074°10'0 0.0
2017-Feb-15 21:33N 40°38' W 074°10'0 0.0
2017-Feb-15 20:33N 40°38' W 074°10'0 0.0
2017-Feb-15 19:33N 40°38' W 074°10'0 0.0
2017-Feb-15 18:32N 40°38' W 074°10'0 0.0
2017-Feb-15 17:33N 40°38' W 074°10'0 0.0
2017-Feb-15 16:33N 40°38' W 074°10'0 0.0
2017-Feb-15 15:33N 40°38' W 074°10'0 0.0
2017-Feb-15 14:33N 40°38' W 074°10'0 0.0
2017-Feb-15 13:33N 40°38' W 074°10'0 0.0
2017-Feb-15 12:33N 40°38' W 074°10'0 0.0
2017-Feb-15 11:33N 40°38' W 074°10'0 0.0
2017-Feb-15 10:33N 40°38' W 074°10'0 0.0
2017-Feb-15 09:33N 40°38' W 074°10'0 0.0
2017-Feb-15 08:33N 40°38' W 074°10'0 0.0
2017-Feb-15 07:33N 40°38' W 074°10'0 0.0
2017-Feb-15 06:33N 40°38' W 074°10'0 0.0
2017-Feb-15 05:33N 40°38' W 074°10'0 0.0
2017-Feb-15 04:33N 40°38' W 074°10'0 0.0
2017-Feb-15 03:32N 40°38' W 074°10'0 0.0
2017-Feb-15 02:33N 40°38' W 074°10'0 0.0
2017-Feb-15 01:33N 40°38' W 074°10'0 0.0
2017-Feb-15 00:33N 40°38' W 074°10'0 0.0
2017-Feb-14 23:33N 40°38' W 074°10'0 0.0
2017-Feb-14 22:33N 40°38' W 074°10'0 0.0
2017-Feb-14 21:33N 40°38' W 074°10'0 0.0
2017-Feb-14 20:33N 40°38' W 074°10'0 0.0
2017-Feb-14 19:33N 40°38' W 074°10'0 0.0
2017-Feb-14 18:33N 40°38' W 074°10'0 0.0
2017-Feb-14 17:33N 40°38' W 074°10'0 0.0
2017-Feb-14 16:33N 40°38' W 074°10'0 0.0
2017-Feb-14 15:33N 40°38' W 074°10'0 0.0
2017-Feb-14 14:33N 40°38' W 074°10'0 0.0
2017-Feb-14 13:33N 40°38' W 074°10'0 0.0
2017-Feb-14 12:33N 40°38' W 074°10'0 0.0
2017-Feb-14 11:33N 40°38' W 074°10'0 0.0
2017-Feb-14 10:33N 40°38' W 074°10'0 0.0
2017-Feb-14 09:33N 40°38' W 074°10'0 0.0
2017-Feb-14 08:33N 40°38' W 074°10'0 0.0
2017-Feb-14 07:33N 40°38' W 074°10'0 0.0
2017-Feb-14 06:33N 40°38' W 074°10'0 0.0
2017-Feb-14 05:33N 40°38' W 074°10'0 0.0
2017-Feb-14 04:33N 40°38' W 074°10'0 0.0
2017-Feb-14 03:33N 40°38' W 074°10'0 0.0
2017-Feb-14 02:33N 40°38' W 074°10'0 0.0
2017-Feb-14 01:32N 40°38' W 074°10'0 0.0
2017-Feb-14 00:33N 40°38' W 074°10'0 0.0
2017-Feb-13 23:33N 40°38' W 074°10'2 2.4
2017-Feb-13 22:33N 40°41' W 074°08'0 0.4
2017-Feb-13 21:33N 40°40' W 074°08'2 2.5
2017-Feb-13 20:33N 40°39' W 074°05'3 3.4
2017-Feb-13 19:33N 40°38' W 074°10'  

Dump ship's entire track history